createdAt,value
2023-03-06T00:00:25.386Z,99013.00
2023-03-06T00:02:54.105Z,99007.19
2023-03-06T00:05:24.196Z,99013.44
2023-03-06T00:07:52.777Z,99001.53
2023-03-06T00:10:23.984Z,99008.22
2023-03-06T00:12:53.446Z,99008.78
2023-03-06T00:15:22.423Z,99005.75
2023-03-06T00:17:50.928Z,99004.91
2023-03-06T00:20:20.213Z,99003.06
2023-03-06T00:22:50.654Z,98999.00
2023-03-06T00:25:22.042Z,99001.88
2023-03-06T00:27:51.440Z,99008.22
2023-03-06T00:30:22.087Z,99004.66
2023-03-06T00:32:51.376Z,99003.81
2023-03-06T00:35:20.121Z,98999.56
2023-03-06T00:37:50.468Z,98996.91
2023-03-06T00:40:20.764Z,98998.81
2023-03-06T00:42:49.946Z,98990.38
2023-03-06T00:45:19.342Z,98992.75
2023-03-06T00:47:47.769Z,98998.06
2023-03-06T00:50:16.553Z,98990.03
2023-03-06T00:52:45.171Z,98992.59
2023-03-06T00:55:15.125Z,98993.41
2023-03-06T00:57:43.748Z,98990.91
2023-03-06T01:00:15.981Z,98988.59
2023-03-06T01:02:44.526Z,98989.06
2023-03-06T01:05:15.047Z,98976.50
2023-03-06T01:07:43.910Z,98987.75
2023-03-06T01:10:15.058Z,98976.53
2023-03-06T01:12:43.601Z,98986.13
2023-03-06T01:15:14.031Z,98982.06
2023-03-06T01:17:42.678Z,98991.72
2023-03-06T01:20:15.147Z,98976.78
2023-03-06T01:22:43.846Z,98980.06
2023-03-06T01:25:14.635Z,98985.72
2023-03-06T01:27:44.481Z,98983.41
2023-03-06T01:30:14.278Z,98987.09
2023-03-06T01:32:42.934Z,98982.75
2023-03-06T01:35:12.653Z,98984.09
2023-03-06T01:37:42.564Z,98980.69
2023-03-06T01:40:13.676Z,98987.03
2023-03-06T01:42:45.395Z,98975.31
2023-03-06T01:45:53.112Z,98983.16
2023-03-06T01:48:23.972Z,98976.47
2023-03-06T01:50:54.143Z,98983.94
2023-03-06T01:53:23.044Z,98976.31
2023-03-06T01:55:51.779Z,98978.22
2023-03-06T01:58:22.065Z,98977.19
2023-03-06T02:00:50.607Z,98975.50
2023-03-06T02:03:23.812Z,98969.94
2023-03-06T02:05:52.830Z,98975.69
2023-03-06T02:08:23.291Z,98961.38
2023-03-06T02:11:00.115Z,98968.63
2023-03-06T02:13:30.463Z,98971.31
2023-03-06T02:15:59.697Z,98967.41
2023-03-06T02:18:29.056Z,98966.13
2023-03-06T02:21:00.560Z,98963.22
2023-03-06T02:23:35.151Z,98967.28
2023-03-06T02:26:06.412Z,98963.44
2023-03-06T02:28:36.031Z,98963.44
2023-03-06T02:31:04.752Z,98965.16
2023-03-06T02:33:33.951Z,98970.13
2023-03-06T02:36:05.982Z,98971.88
2023-03-06T02:38:38.612Z,98956.50
2023-03-06T02:41:10.469Z,98966.06
2023-03-06T02:43:41.882Z,98966.00
2023-03-06T02:46:10.838Z,98971.06
2023-03-06T02:48:39.336Z,98961.88
2023-03-06T02:51:07.902Z,98962.63
2023-03-06T02:53:36.412Z,98958.09
2023-03-06T02:56:05.168Z,98963.19
2023-03-06T02:58:35.189Z,98963.00
2023-03-06T03:01:03.852Z,98968.06
2023-03-06T03:03:33.346Z,98959.34
2023-03-06T03:06:02.264Z,98955.59
2023-03-06T03:08:34.074Z,98951.00
2023-03-06T03:11:05.637Z,98946.31
2023-03-06T03:13:41.994Z,98956.63
2023-03-06T03:16:16.151Z,98951.38
2023-03-06T03:18:48.168Z,98952.97
2023-03-06T03:21:19.195Z,98957.88
2023-03-06T03:23:52.371Z,98957.66
2023-03-06T03:26:22.629Z,98951.50
2023-03-06T03:29:05.601Z,98946.31
2023-03-06T03:31:34.044Z,98942.72
2023-03-06T03:34:04.002Z,98952.69
2023-03-06T03:36:35.955Z,98951.94
2023-03-06T03:39:05.742Z,98944.22
2023-03-06T03:41:34.946Z,98948.56
2023-03-06T03:44:08.320Z,98936.34
2023-03-06T03:46:37.415Z,98941.81
2023-03-06T03:49:10.232Z,98929.59
2023-03-06T03:51:39.716Z,98929.59
2023-03-06T03:54:08.336Z,98926.31
2023-03-06T03:56:42.348Z,98924.44
2023-03-06T03:59:18.611Z,98920.84
2023-03-06T04:01:58.592Z,98914.75
2023-03-06T04:04:27.749Z,98920.19
2023-03-06T04:06:59.040Z,98917.50
2023-03-06T04:09:28.125Z,98910.53
2023-03-06T04:11:57.808Z,98911.34
2023-03-06T04:14:28.446Z,98905.34
2023-03-06T04:17:00.565Z,98906.09
2023-03-06T04:19:29.788Z,98904.44
2023-03-06T04:22:02.566Z,98907.81
2023-03-06T04:24:34.251Z,98907.97
2023-03-06T04:27:03.161Z,98899.16
2023-03-06T04:29:34.255Z,98900.47
2023-03-06T04:32:09.039Z,98899.16
2023-03-06T04:34:38.641Z,98890.53
2023-03-06T04:37:19.586Z,98892.41
2023-03-06T04:39:52.270Z,98895.13
2023-03-06T04:42:23.935Z,98886.84
2023-03-06T04:44:54.368Z,98893.34
2023-03-06T04:47:26.528Z,98883.78
2023-03-06T04:49:55.583Z,98892.41
2023-03-06T04:52:24.455Z,98886.22
2023-03-06T04:54:53.525Z,98894.66
2023-03-06T04:57:22.489Z,98883.56
2023-03-06T04:59:54.072Z,98884.13
2023-03-06T05:02:25.071Z,98894.59
2023-03-06T05:04:53.653Z,98895.69
2023-03-06T05:07:22.486Z,98895.03
2023-03-06T05:09:51.461Z,98889.72
2023-03-06T05:12:23.441Z,98892.94
2023-03-06T05:14:52.408Z,98898.16
2023-03-06T05:17:21.341Z,98896.13
2023-03-06T05:19:51.932Z,98899.97
2023-03-06T05:22:20.928Z,98899.91
2023-03-06T05:24:49.905Z,98896.13
2023-03-06T05:27:23.465Z,98903.34
2023-03-06T05:29:52.612Z,98902.72
2023-03-06T05:32:21.743Z,98903.22
2023-03-06T05:34:52.736Z,98905.22
2023-03-06T05:37:26.014Z,98904.56
2023-03-06T05:39:55.113Z,98907.53
2023-03-06T05:42:24.051Z,98905.78
2023-03-06T05:44:52.973Z,98895.88
2023-03-06T05:47:21.844Z,98910.44
2023-03-06T05:49:52.789Z,98911.22
2023-03-06T05:52:22.515Z,98906.72
2023-03-06T05:54:52.270Z,98921.84
2023-03-06T05:57:21.938Z,98917.88
2023-03-06T05:59:51.223Z,98918.28
2023-03-06T06:02:20.897Z,98916.34
2023-03-06T06:04:49.713Z,98925.44
2023-03-06T06:07:20.075Z,98914.06
2023-03-06T06:09:49.201Z,98918.44
2023-03-06T06:12:18.130Z,98909.97
2023-03-06T06:14:47.068Z,98915.44
2023-03-06T06:17:16.851Z,98904.03
2023-03-06T06:19:45.888Z,98905.09
2023-03-06T06:22:17.348Z,98903.41
2023-03-06T06:24:47.707Z,98906.09
2023-03-06T06:27:16.713Z,98901.75
2023-03-06T06:29:45.248Z,98913.44
2023-03-06T06:32:16.647Z,98913.84
2023-03-06T06:34:45.688Z,98909.69
2023-03-06T06:37:14.457Z,98907.44
2023-03-06T06:39:47.724Z,98901.94
2023-03-06T06:42:38.998Z,98901.69
2023-03-06T06:45:08.466Z,98908.94
2023-03-06T06:47:41.327Z,98902.25
2023-03-06T06:50:13.932Z,98896.50
2023-03-06T06:52:43.123Z,98895.50
2023-03-06T06:55:26.169Z,98894.19
2023-03-06T06:57:57.916Z,98899.81
2023-03-06T07:00:32.978Z,98896.81
2023-03-06T07:03:06.589Z,98888.31
2023-03-06T07:05:39.956Z,98892.91
2023-03-06T07:08:08.945Z,98889.88
2023-03-06T07:10:40.850Z,98893.56
2023-03-06T07:13:09.768Z,98895.44
2023-03-06T07:15:38.737Z,98894.78
2023-03-06T07:18:07.567Z,98890.91
2023-03-06T07:20:38.506Z,98887.81
2023-03-06T07:23:09.786Z,98898.81
2023-03-06T07:25:40.982Z,98890.84
2023-03-06T07:28:10.052Z,98898.25
2023-03-06T07:30:39.126Z,98893.22
2023-03-06T07:33:08.173Z,98885.03
2023-03-06T07:35:38.364Z,98886.88
2023-03-06T07:38:07.120Z,98884.28
2023-03-06T07:40:35.908Z,98883.44
2023-03-06T07:43:18.805Z,98884.41
2023-03-06T07:45:58.361Z,98876.84
2023-03-06T07:48:30.388Z,98880.78
2023-03-06T07:51:02.170Z,98881.00
2023-03-06T07:53:31.252Z,98877.84
2023-03-06T07:56:09.405Z,98874.69
2023-03-06T07:58:42.104Z,98877.84
2023-03-06T08:01:15.766Z,98874.47
2023-03-06T08:03:45.148Z,98877.94
2023-03-06T08:06:18.434Z,98880.06
2023-03-06T08:08:50.196Z,98882.28
2023-03-06T08:11:22.116Z,98890.72
2023-03-06T08:13:53.905Z,98884.94
2023-03-06T08:16:23.566Z,98883.34
2023-03-06T08:18:52.776Z,98888.94
2023-03-06T08:21:25.071Z,98891.16
2023-03-06T08:23:54.149Z,98892.00
2023-03-06T08:26:24.946Z,98893.03
2023-03-06T08:28:57.095Z,98894.06
2023-03-06T08:31:29.469Z,98893.41
2023-03-06T08:34:00.345Z,98897.09
2023-03-06T08:36:29.693Z,98895.53
2023-03-06T08:39:00.325Z,98896.59
2023-03-06T08:41:29.767Z,98890.50
2023-03-06T08:44:00.334Z,98897.66
2023-03-06T08:46:30.955Z,98894.50
2023-03-06T08:49:00.260Z,98902.16
2023-03-06T08:51:29.217Z,98896.47
2023-03-06T08:53:58.992Z,98891.47
2023-03-06T08:56:30.115Z,98902.81
2023-03-06T08:59:00.996Z,98904.19
2023-03-06T09:01:31.200Z,98906.53
2023-03-06T09:04:02.114Z,98916.66
2023-03-06T09:06:38.115Z,98913.25
2023-03-06T09:09:07.589Z,98912.50
2023-03-06T09:11:36.965Z,98912.31
2023-03-06T09:14:10.378Z,98914.00
2023-03-06T09:16:39.345Z,98907.88
2023-03-06T09:19:08.230Z,98909.97
2023-03-06T09:21:37.127Z,98909.66
2023-03-06T09:24:06.164Z,98911.56
2023-03-06T09:26:45.614Z,98907.63
2023-03-06T09:29:17.752Z,98912.78
2023-03-06T09:31:47.361Z,98921.53
2023-03-06T09:34:19.578Z,98914.56
2023-03-06T09:36:56.616Z,98908.03
2023-03-06T09:39:27.550Z,98917.81
2023-03-06T09:41:58.530Z,98913.22
2023-03-06T09:44:30.991Z,98925.88
2023-03-06T09:47:29.260Z,98918.31
2023-03-06T09:50:26.460Z,98927.78
2023-03-06T09:53:09.884Z,98930.75
2023-03-06T09:55:41.414Z,98938.69
2023-03-06T09:58:17.790Z,98928.38
2023-03-06T10:01:00.391Z,98927.81
2023-03-06T10:03:32.584Z,98933.75
2023-03-06T10:06:07.205Z,98937.94
2023-03-06T10:08:48.711Z,98935.09
2023-03-06T10:11:24.028Z,98940.28
2023-03-06T10:14:00.370Z,98935.84
2023-03-06T10:16:33.283Z,98939.28
2023-03-06T10:19:05.668Z,98938.84
2023-03-06T10:21:44.480Z,98939.38
2023-03-06T10:24:25.932Z,98939.22
2023-03-06T10:26:59.735Z,98938.50
2023-03-06T10:29:39.236Z,98934.28
2023-03-06T10:32:29.039Z,98931.16
2023-03-06T10:35:01.978Z,98936.22
2023-03-06T10:37:32.521Z,98929.84
2023-03-06T10:40:08.565Z,98933.94
2023-03-06T10:42:42.916Z,98925.75
2023-03-06T10:45:15.008Z,98938.81
2023-03-06T10:47:45.479Z,98935.41
2023-03-06T10:50:27.051Z,98937.28
2023-03-06T10:53:05.380Z,98930.97
2023-03-06T10:55:35.435Z,98931.59
2023-03-06T10:58:23.728Z,98926.97
2023-03-06T11:01:04.341Z,98931.34
2023-03-06T11:03:36.218Z,98942.88
2023-03-06T11:06:13.039Z,98925.41
2023-03-06T11:08:45.947Z,98932.50
2023-03-06T11:11:22.388Z,98934.28
2023-03-06T11:14:00.338Z,98933.56
2023-03-06T11:16:32.364Z,98930.91
2023-03-06T11:19:05.650Z,98931.81
2023-03-06T11:21:36.577Z,98929.69
2023-03-06T11:24:10.190Z,98928.28
2023-03-06T11:26:51.367Z,98930.75
2023-03-06T11:29:26.096Z,98924.66
2023-03-06T11:32:00.101Z,98928.22
2023-03-06T11:34:40.913Z,98925.97
2023-03-06T11:37:16.679Z,98920.13
2023-03-06T11:39:52.125Z,98931.41
2023-03-06T11:42:28.086Z,98923.84
2023-03-06T11:45:10.915Z,98922.34
2023-03-06T11:47:43.528Z,98920.63
2023-03-06T11:50:22.875Z,98923.59
2023-03-06T11:52:56.404Z,98922.03
2023-03-06T11:55:41.027Z,98922.53
2023-03-06T11:58:42.271Z,98921.41
2023-03-06T12:01:18.888Z,98924.31
2023-03-06T12:04:05.540Z,98920.72
2023-03-06T12:06:49.098Z,98923.41
2023-03-06T12:09:41.196Z,98922.72
2023-03-06T12:12:23.778Z,98915.97
2023-03-06T12:15:21.881Z,98913.94
2023-03-06T12:18:03.714Z,98921.88
2023-03-06T12:20:50.614Z,98920.09
2023-03-06T12:23:38.955Z,98917.47
2023-03-06T12:26:28.153Z,98922.31
2023-03-06T12:29:13.897Z,98924.78
2023-03-06T12:32:04.041Z,98916.56
2023-03-06T12:34:45.091Z,98922.72
2023-03-06T12:37:25.677Z,98921.94
2023-03-06T12:40:20.973Z,98927.22
2023-03-06T12:43:21.208Z,98929.44
2023-03-06T12:45:54.381Z,98926.94
2023-03-06T12:48:28.191Z,98933.50
2023-03-06T12:50:58.074Z,98928.03
2023-03-06T12:53:30.051Z,98923.66
2023-03-06T12:56:02.352Z,98925.47
2023-03-06T12:58:58.275Z,98931.00
2023-03-06T13:02:02.852Z,98927.22
2023-03-06T13:04:46.990Z,98929.78
2023-03-06T13:07:35.138Z,98927.13
2023-03-06T13:10:10.374Z,98931.06
2023-03-06T13:13:01.256Z,98928.22
2023-03-06T13:15:39.667Z,98927.28
2023-03-06T13:18:51.224Z,98924.78
2023-03-06T13:21:46.203Z,98915.56
2023-03-06T13:24:21.424Z,98920.09
2023-03-06T13:26:58.422Z,98927.78
2023-03-06T13:29:57.819Z,98921.66
2023-03-06T13:32:36.779Z,98925.50
2023-03-06T13:35:50.155Z,98913.97
2023-03-06T13:38:54.433Z,98918.56
2023-03-06T13:41:39.487Z,98918.81
2023-03-06T13:44:42.132Z,98925.16
2023-03-06T13:48:05.766Z,98925.38
2023-03-06T13:50:36.379Z,98919.38
2023-03-06T13:53:38.715Z,98917.44
2023-03-06T13:56:38.513Z,98930.38
2023-03-06T13:59:40.009Z,98922.63
2023-03-06T14:02:31.331Z,98926.91
2023-03-06T14:05:01.736Z,98922.13
2023-03-06T14:07:31.785Z,98921.41
2023-03-06T14:10:10.606Z,98925.88
2023-03-06T14:12:43.056Z,98924.13
2023-03-06T14:15:20.534Z,98920.16
2023-03-06T14:17:57.862Z,98919.31
2023-03-06T14:20:37.412Z,98929.53
2023-03-06T14:23:27.011Z,98930.38
2023-03-06T14:26:09.410Z,98929.41
2023-03-06T14:28:38.387Z,98926.63
2023-03-06T14:31:07.749Z,98926.63
2023-03-06T14:33:45.435Z,98928.19
2023-03-06T14:36:20.032Z,98927.69
2023-03-06T14:38:52.989Z,98929.81
2023-03-06T14:41:27.040Z,98926.34
2023-03-06T14:44:10.391Z,98930.56
2023-03-06T14:46:39.449Z,98925.59
2023-03-06T14:49:08.460Z,98930.59
2023-03-06T14:51:43.050Z,98931.16
2023-03-06T14:54:17.442Z,98930.94
2023-03-06T14:56:48.700Z,98930.78
2023-03-06T14:59:18.951Z,98930.66
2023-03-06T15:01:51.181Z,98935.06
2023-03-06T15:04:29.951Z,98932.69
2023-03-06T15:07:00.747Z,98931.72
2023-03-06T15:09:31.910Z,98939.66
2023-03-06T15:12:01.250Z,98940.97
2023-03-06T15:14:37.776Z,98944.00
2023-03-06T15:17:39.324Z,98943.97
2023-03-06T15:20:30.291Z,98946.09
2023-03-06T15:23:00.422Z,98960.19
2023-03-06T15:25:30.376Z,98952.69
2023-03-06T15:28:01.052Z,98951.41
2023-03-06T15:30:32.565Z,98946.53
2023-03-06T15:33:25.416Z,98955.69
2023-03-06T15:35:57.448Z,98957.63
2023-03-06T15:38:34.095Z,98956.00
2023-03-06T15:41:03.992Z,98952.13
2023-03-06T15:43:36.550Z,98956.25
2023-03-06T15:46:07.061Z,98954.31
2023-03-06T15:48:35.829Z,98953.09
2023-03-06T15:51:05.114Z,98954.66
2023-03-06T15:53:35.123Z,98956.97
2023-03-06T15:56:03.761Z,98950.75
2023-03-06T15:58:35.427Z,98954.56
2023-03-06T16:01:04.145Z,98955.41
2023-03-06T16:03:33.215Z,98953.53
2023-03-06T16:06:01.719Z,98951.22
2023-03-06T16:08:30.425Z,98953.13
2023-03-06T16:11:00.372Z,98950.94
2023-03-06T16:13:30.178Z,98950.00
2023-03-06T16:15:58.700Z,98954.09
2023-03-06T16:18:27.178Z,98950.00
2023-03-06T16:20:55.699Z,98949.47
2023-03-06T16:23:24.146Z,98951.25
2023-03-06T16:25:52.655Z,98950.63
2023-03-06T16:28:22.632Z,98951.69
2023-03-06T16:30:51.034Z,98953.34
2023-03-06T16:33:19.647Z,98953.56
2023-03-06T16:35:50.070Z,98951.34
2023-03-06T16:38:18.769Z,98957.38
2023-03-06T16:40:47.398Z,98950.63
2023-03-06T16:43:16.747Z,98952.09
2023-03-06T16:45:46.786Z,98952.94
2023-03-06T16:48:18.542Z,98945.13
2023-03-06T16:50:47.177Z,98941.34
2023-03-06T16:53:16.397Z,98944.91
2023-03-06T16:55:45.109Z,98946.09
2023-03-06T16:58:13.588Z,98944.06
2023-03-06T17:00:42.369Z,98947.09
2023-03-06T17:03:12.326Z,98952.03
2023-03-06T17:05:42.593Z,98950.16
2023-03-06T17:08:12.453Z,98944.00
2023-03-06T17:10:42.598Z,98951.91
2023-03-06T17:13:11.173Z,98946.94
2023-03-06T17:15:39.783Z,98945.91
2023-03-06T17:18:08.407Z,98954.47
2023-03-06T17:20:38.789Z,98944.81
2023-03-06T17:23:07.267Z,98943.00
2023-03-06T17:25:35.735Z,98949.31
2023-03-06T17:28:04.431Z,98951.00
2023-03-06T17:30:33.075Z,98946.94
2023-03-06T17:33:01.715Z,98948.41
2023-03-06T17:35:30.681Z,98945.47
2023-03-06T17:38:00.815Z,98948.66
2023-03-06T17:40:29.316Z,98949.31
2023-03-06T17:42:58.933Z,98941.50
2023-03-06T17:45:29.405Z,98948.25
2023-03-06T17:47:58.089Z,98943.81
2023-03-06T17:50:26.512Z,98936.13
2023-03-06T17:52:55.004Z,98939.41
2023-03-06T17:55:25.006Z,98941.94
2023-03-06T17:57:53.653Z,98935.09
2023-03-06T18:00:23.177Z,98935.84
2023-03-06T18:02:52.241Z,98933.19
2023-03-06T18:05:22.153Z,98922.66
2023-03-06T18:07:51.244Z,98921.47
2023-03-06T18:10:19.994Z,98924.81
2023-03-06T18:12:50.869Z,98931.75
2023-03-06T18:15:20.010Z,98920.47
2023-03-06T18:17:48.472Z,98919.63
2023-03-06T18:20:17.478Z,98920.19
2023-03-06T18:22:46.030Z,98913.03
2023-03-06T18:25:14.516Z,98907.75
2023-03-06T18:27:42.978Z,98912.63
2023-03-06T18:30:14.639Z,98902.19
2023-03-06T18:32:43.228Z,98897.84
2023-03-06T18:35:11.740Z,98893.22
2023-03-06T18:37:40.264Z,98887.28
2023-03-06T18:40:10.119Z,98897.84
2023-03-06T18:42:38.761Z,98891.31
2023-03-06T18:45:08.668Z,98893.59
2023-03-06T18:47:38.785Z,98885.91
2023-03-06T18:50:08.082Z,98890.22
2023-03-06T18:52:36.805Z,98895.28
2023-03-06T18:55:05.740Z,98880.25
2023-03-06T18:57:34.381Z,98879.38
2023-03-06T19:00:02.885Z,98884.47
2023-03-06T19:02:31.682Z,98878.84
2023-03-06T19:05:01.785Z,98883.19
2023-03-06T19:07:30.361Z,98871.69
2023-03-06T19:09:58.954Z,98875.91
2023-03-06T19:12:27.447Z,98881.84
2023-03-06T19:14:56.016Z,98881.72
2023-03-06T19:17:25.068Z,98872.75
2023-03-06T19:19:55.185Z,98870.88
2023-03-06T19:22:25.147Z,98877.84
2023-03-06T19:24:53.587Z,98885.63
2023-03-06T19:27:22.632Z,98876.59
2023-03-06T19:29:51.151Z,98879.13
2023-03-06T19:32:19.773Z,98884.41
2023-03-06T19:34:50.148Z,98902.84
2023-03-06T19:37:18.846Z,98903.34
2023-03-06T19:39:48.791Z,98916.09
2023-03-06T19:42:17.366Z,98931.75
2023-03-06T19:44:45.992Z,98932.72
2023-03-06T19:47:14.522Z,98946.41
2023-03-06T19:49:43.017Z,98950.91
2023-03-06T19:52:12.955Z,98963.63
2023-03-06T19:54:41.667Z,98962.44
2023-03-06T19:57:12.018Z,98985.59
2023-03-06T19:59:40.615Z,98980.63
2023-03-06T20:02:11.417Z,98987.56
2023-03-06T20:04:40.092Z,98991.03
2023-03-06T20:07:08.640Z,98992.94
2023-03-06T20:09:37.095Z,98997.34
2023-03-06T20:12:08.162Z,99003.78
2023-03-06T20:14:38.166Z,99005.66
2023-03-06T20:17:06.664Z,99019.19
2023-03-06T20:19:35.549Z,99025.06
2023-03-06T20:22:03.928Z,99036.41
2023-03-06T20:24:32.456Z,99027.47
2023-03-06T20:27:00.979Z,99037.06
2023-03-06T20:29:29.459Z,99032.75
2023-03-06T20:31:59.974Z,99035.84
2023-03-06T20:34:28.700Z,99036.50
2023-03-06T20:36:58.049Z,99043.63
2023-03-06T20:39:26.708Z,99044.78
2023-03-06T20:41:55.212Z,99053.44
2023-03-06T20:44:24.137Z,99048.19
2023-03-06T20:46:53.183Z,99064.81
2023-03-06T20:49:25.072Z,99055.31
2023-03-06T20:51:56.262Z,99058.88
2023-03-06T20:54:24.844Z,99067.91
2023-03-06T20:56:53.814Z,99063.69
2023-03-06T20:59:24.286Z,99063.13
2023-03-06T21:01:53.328Z,99066.09
2023-03-06T21:04:24.777Z,99065.81
2023-03-06T21:06:55.117Z,99066.50
2023-03-06T21:09:24.002Z,99073.81
2023-03-06T21:11:53.122Z,99071.41
2023-03-06T21:14:21.862Z,99076.97
2023-03-06T21:16:51.124Z,99073.22
2023-03-06T21:19:20.464Z,99076.53
2023-03-06T21:21:51.064Z,99077.81
2023-03-06T21:24:21.335Z,99083.09
2023-03-06T21:26:53.246Z,99072.88
2023-03-06T21:29:22.491Z,99090.31
2023-03-06T21:31:51.192Z,99097.19
2023-03-06T21:34:20.027Z,99098.28
2023-03-06T21:36:51.340Z,99091.66
2023-03-06T21:39:20.271Z,99094.94
2023-03-06T21:41:50.032Z,99089.19
2023-03-06T21:44:18.873Z,99089.16
2023-03-06T21:46:48.162Z,99099.19
2023-03-06T21:49:17.452Z,99099.81
2023-03-06T21:51:46.395Z,99102.69
2023-03-06T21:54:17.052Z,99103.59
2023-03-06T21:56:45.750Z,99107.25
2023-03-06T21:59:14.625Z,99106.50
2023-03-06T22:01:44.057Z,99111.84
2023-03-06T22:04:12.775Z,99121.63
2023-03-06T22:06:41.817Z,99117.72
2023-03-06T22:09:13.194Z,99129.59
2023-03-06T22:11:43.388Z,99126.56
2023-03-06T22:14:12.550Z,99120.31
2023-03-06T22:16:41.352Z,99126.78
2023-03-06T22:19:10.312Z,99128.25
2023-03-06T22:21:39.677Z,99124.25
2023-03-06T22:24:11.084Z,99129.72
2023-03-06T22:26:40.080Z,99136.81
2023-03-06T22:29:10.382Z,99144.09
2023-03-06T22:31:40.556Z,99138.63
2023-03-06T22:34:12.111Z,99129.13
2023-03-06T22:36:41.041Z,99135.81
2023-03-06T22:39:10.527Z,99143.59
2023-03-06T22:41:39.393Z,99139.69
2023-03-06T22:44:11.601Z,99147.09
2023-03-06T22:46:40.574Z,99140.44
2023-03-06T22:49:10.926Z,99145.72
2023-03-06T22:51:40.455Z,99149.00
2023-03-06T22:54:09.953Z,99158.91
2023-03-06T22:56:38.842Z,99160.53
2023-03-06T22:59:07.793Z,99157.03
2023-03-06T23:01:38.017Z,99158.38
2023-03-06T23:04:11.388Z,99167.38
2023-03-06T23:06:41.363Z,99171.13
2023-03-06T23:09:14.813Z,99170.78
2023-03-06T23:12:02.189Z,99173.03
2023-03-06T23:14:51.330Z,99173.78
2023-03-06T23:17:39.759Z,99165.22
2023-03-06T23:20:26.983Z,99169.72
2023-03-06T23:23:14.515Z,99177.97
2023-03-06T23:25:43.099Z,99178.19
2023-03-06T23:28:11.848Z,99174.13
2023-03-06T23:30:40.556Z,99177.72
2023-03-06T23:33:10.926Z,99180.78
2023-03-06T23:35:40.116Z,99183.44
2023-03-06T23:38:08.635Z,99190.78
2023-03-06T23:40:38.874Z,99177.31
2023-03-06T23:43:07.786Z,99178.09
2023-03-06T23:45:36.776Z,99183.25
2023-03-06T23:48:07.546Z,99174.94
2023-03-06T23:50:41.304Z,99171.38
2023-03-06T23:53:09.824Z,99160.16
2023-03-06T23:55:42.675Z,99167.53
2023-03-06T23:58:11.197Z,99170.69
